Pickford, MI (49774)

5:00 PM EDT on August 27, 2015 (GMT -0400)
Rocky Point | | Change Station
CLOSE
Current Station
Personal Weather Station
Location: Pickford, MI
Elevation: 574 ft
Nearby Weather Stations

Elev 574 ft 46.18 °N, 84.12 °W | Updated 41 seconds ago

Clear
Clear
67.5 °F
Feels Like 67.5 °F
N
0.0
Wind Variable Wind from NE
Gusts 0.7 mph

Today
High -- | Low -- °F
--% Chance of Precip.
Yesterday
High -- | Low -- °F
Precip. -- in
6:50 AM 8:25 PM
Waxing Gibbous, 95% visible
Pressure 30.12 in
Visibility 10.0 miles
Clouds Clear
Dew Point 57 °F
Humidity 69%
Rainfall 0.00 in
Snow Depth Not available.
UV 4 out of 12
Pollen 9.20 out of 12
Air Quality Not available.
Flu Activity Not available.
METAR KCIU 272055Z AUTO 21004KT 10SM CLR 20/12 A3012 RMK AO1 57017
Pressure 30.12 in
Visibility 10.0 miles
Clouds Clear
Dew Point 57 °F
Humidity 69%
Rainfall 0.00 in
Snow Depth Not available.
UV 4 out of 12
Pollen 9.20 out of 12
Air Quality Not available.
Flu Activity Not available.
METAR KCIU 272055Z AUTO 21004KT 10SM CLR 20/12 A3012 RMK AO1 57017
Nowcast | as of 4:00 PM EDT on August 27, 2015

At 5 PM...mostly clear. Temperature 67. Light winds. At 7 PM...mostly clear. Temperature 64. South winds 6 mph. At 9 PM...mostly clear. Temperature 60. South winds 7 mph. At 11 PM...mostly clear. Temperature 57. Light winds.

×

10-Day Weather Forecast

×

Almanac

Astronomy

Aug. 27, 2015 Rise Set
Actual Time
Civil Twilight
Nautical Twilight
Astronomical Twilight
Moon
Length of Visible Light
Length of Day
Tomorrow will be .
, % of the Moon is Illuminated

Today's Extremes

State Highs State Lows

Community

WunderPhotos

Upload Photos

1,850,217 photos uploaded!

WunderBlogs® & News

Nearby

Air Quality

  Air Quality AQ Index Pollutant
Not available.

Snow Depth

Station Depth Elevation

Earthquake Activity

City Distance Mag. Time & Date
Minimum magnitude displayed is 2.5.

Coastal Water Temperatures

Place Temperature

Stations

Nearby Weather Stations

Station Location Temp. Windchill Dew Point Humidity Wind Precip. Elev Updated Type